createdAt,value
2019-04-28T00:01:58.576Z,9.40
2019-04-28T00:06:17.111Z,9.40
2019-04-28T00:10:36.255Z,9.40
2019-04-28T00:14:55.685Z,9.30
2019-04-28T00:19:14.096Z,9.30
2019-04-28T00:23:42.270Z,9.30
2019-04-28T00:28:01.658Z,9.30
2019-04-28T00:32:21.070Z,9.30
2019-04-28T00:36:41.188Z,9.40
2019-04-28T00:40:59.670Z,9.40
2019-04-28T00:45:18.641Z,9.50
2019-04-28T00:49:51.782Z,9.50
2019-04-28T00:54:12.042Z,9.50
2019-04-28T00:58:31.931Z,9.60
2019-04-28T01:02:51.013Z,9.60
2019-04-28T01:07:11.139Z,9.60
2019-04-28T01:11:31.224Z,9.60
2019-04-28T01:16:11.106Z,9.60
2019-04-28T01:20:29.682Z,9.70
2019-04-28T01:24:49.723Z,9.60
2019-04-28T01:29:09.584Z,9.60
2019-04-28T01:33:36.982Z,9.60
2019-04-28T01:37:55.141Z,9.50
2019-04-28T01:42:14.625Z,9.50
2019-04-28T01:46:32.921Z,9.40
2019-04-28T01:50:51.313Z,9.40
2019-04-28T01:55:10.161Z,9.40
2019-04-28T01:59:30.221Z,9.40
2019-04-28T02:03:50.219Z,9.50
2019-04-28T02:08:10.184Z,9.50
2019-04-28T02:12:30.454Z,9.60
2019-04-28T02:16:50.388Z,9.60
2019-04-28T02:21:21.217Z,9.60
2019-04-28T02:25:39.928Z,9.60
2019-04-28T02:30:00.122Z,9.60
2019-04-28T02:34:21.210Z,9.60
2019-04-28T02:38:41.423Z,9.60
2019-04-28T02:43:01.324Z,9.50
2019-04-28T02:47:21.895Z,9.50
2019-04-28T02:51:47.111Z,9.50
2019-04-28T02:56:05.599Z,9.50
2019-04-28T03:00:24.398Z,9.50
2019-04-28T03:04:42.733Z,9.50
2019-04-28T03:09:01.141Z,9.50
2019-04-28T03:13:21.127Z,9.40
2019-04-28T03:17:40.809Z,9.30
2019-04-28T03:22:01.341Z,9.30
2019-04-28T03:26:44.894Z,9.20
2019-04-28T03:31:50.877Z,9.10
2019-04-28T03:35:47.982Z,9.00
2019-04-28T03:40:07.177Z,9.00
2019-04-28T03:44:25.459Z,9.00
2019-04-28T03:48:44.355Z,8.90
2019-04-28T03:53:03.066Z,8.90
2019-04-28T03:57:22.017Z,8.80
2019-04-28T04:01:55.604Z,8.80
2019-04-28T04:06:01.006Z,8.70
2019-04-28T04:10:40.422Z,8.70
2019-04-28T04:15:04.975Z,8.60
2019-04-28T04:19:23.343Z,8.60
2019-04-28T04:23:42.704Z,8.60
2019-04-28T04:28:03.648Z,8.50
2019-04-28T04:32:26.281Z,8.40
2019-04-28T04:36:41.945Z,8.40
2019-04-28T04:41:01.909Z,8.50
2019-04-28T04:45:20.827Z,8.50
2019-04-28T04:49:40.438Z,8.60
2019-04-28T04:54:01.184Z,8.70
2019-04-28T04:58:21.422Z,8.80
2019-04-28T05:02:51.967Z,8.90
2019-04-28T05:07:06.419Z,9.00
2019-04-28T05:11:24.690Z,9.00
2019-04-28T05:15:43.030Z,9.10
2019-04-28T05:20:01.843Z,9.20
2019-04-28T05:24:52.992Z,9.20
2019-04-28T05:29:10.099Z,9.30
2019-04-28T05:33:33.303Z,9.40
2019-04-28T05:37:49.429Z,9.40
2019-04-28T05:42:09.736Z,9.70
2019-04-28T05:46:30.032Z,10.10
2019-04-28T05:51:01.795Z,10.50
2019-04-28T05:55:25.597Z,11.00
2019-04-28T05:59:50.562Z,11.90
2019-04-28T06:04:11.271Z,13.00
2019-04-28T06:08:40.729Z,14.20
2019-04-28T06:12:59.748Z,15.40
2019-04-28T06:17:18.232Z,16.50
2019-04-28T06:21:36.508Z,17.50
2019-04-28T06:25:54.745Z,18.30
2019-04-28T06:30:13.132Z,19.10
2019-04-28T06:34:31.757Z,19.80
2019-04-28T06:38:50.345Z,20.40
2019-04-28T06:43:08.637Z,20.70
2019-04-28T06:47:27.026Z,21.00
2019-04-28T06:51:45.651Z,21.20
2019-04-28T06:56:04.345Z,21.30
2019-04-28T07:00:22.615Z,21.00
2019-04-28T07:04:40.842Z,20.20
2019-04-28T07:08:59.277Z,19.30
2019-04-28T07:13:20.451Z,18.70
2019-04-28T07:17:38.143Z,18.30
2019-04-28T07:22:15.309Z,17.90
2019-04-28T07:26:34.146Z,17.60
2019-04-28T07:30:52.390Z,17.20
2019-04-28T07:35:10.859Z,16.60
2019-04-28T07:39:29.565Z,16.10
2019-04-28T07:43:47.701Z,15.60
2019-04-28T07:48:06.023Z,15.20
2019-04-28T07:52:40.357Z,15.00
2019-04-28T07:56:59.424Z,14.80
2019-04-28T08:01:17.903Z,14.90
2019-04-28T08:05:36.569Z,15.00
2019-04-28T08:09:55.021Z,15.10
2019-04-28T08:14:13.342Z,15.10
2019-04-28T08:18:31.779Z,15.10
2019-04-28T08:22:50.245Z,14.90
2019-04-28T08:27:08.565Z,14.50
2019-04-28T08:31:31.590Z,13.90
2019-04-28T08:35:49.863Z,13.50
2019-04-28T08:40:08.443Z,13.10
2019-04-28T08:44:26.769Z,13.00
2019-04-28T08:48:46.092Z,13.10
2019-04-28T08:53:06.524Z,13.60
2019-04-28T08:57:26.350Z,14.50
2019-04-28T09:01:44.974Z,15.20
2019-04-28T09:06:03.647Z,15.80
2019-04-28T09:10:22.255Z,16.20
2019-04-28T09:14:40.570Z,16.50
2019-04-28T09:18:59.263Z,16.70
2019-04-28T09:23:17.524Z,17.00
2019-04-28T09:27:35.779Z,17.50
2019-04-28T09:31:54.099Z,18.20
2019-04-28T09:36:12.539Z,18.70
2019-04-28T09:40:31.009Z,18.90
2019-04-28T09:44:49.171Z,18.70
2019-04-28T09:49:07.533Z,18.20
2019-04-28T09:53:25.778Z,17.60
2019-04-28T09:57:44.070Z,17.10
2019-04-28T10:02:02.403Z,16.80
2019-04-28T10:06:20.760Z,16.90
2019-04-28T10:10:39.543Z,17.40
2019-04-28T10:14:58.029Z,18.30
2019-04-28T10:19:16.417Z,19.40
2019-04-28T10:23:35.545Z,20.40
2019-04-28T10:27:54.756Z,21.20
2019-04-28T10:32:13.157Z,21.80
2019-04-28T10:36:33.768Z,22.20
2019-04-28T10:41:00.890Z,22.30
2019-04-28T10:45:22.682Z,22.00
2019-04-28T10:49:41.169Z,21.30
2019-04-28T10:54:01.366Z,20.50
2019-04-28T10:58:23.842Z,19.70
2019-04-28T11:02:43.965Z,18.90
2019-04-28T11:07:02.208Z,18.20
2019-04-28T11:11:26.661Z,17.70
2019-04-28T11:15:46.420Z,17.20
2019-04-28T11:20:05.876Z,16.90
2019-04-28T11:24:24.420Z,16.60
2019-04-28T11:28:43.499Z,16.30
2019-04-28T11:33:23.659Z,16.10
2019-04-28T11:37:42.545Z,15.90
2019-04-28T11:42:00.937Z,15.70
2019-04-28T11:46:21.225Z,15.30
2019-04-28T11:50:39.577Z,14.70
2019-04-28T11:54:57.936Z,14.00
2019-04-28T11:59:16.401Z,13.20
2019-04-28T12:03:34.877Z,12.60
2019-04-28T12:07:53.598Z,12.20
2019-04-28T12:12:34.605Z,11.90
2019-04-28T12:17:20.897Z,11.70
2019-04-28T12:21:39.105Z,11.50
2019-04-28T12:25:57.697Z,11.50
2019-04-28T12:30:16.599Z,11.40
2019-04-28T12:34:34.984Z,11.30
2019-04-28T12:38:53.393Z,11.20
2019-04-28T12:43:11.838Z,11.30
2019-04-28T12:47:30.528Z,11.30
2019-04-28T12:51:48.962Z,11.40
2019-04-28T12:56:07.277Z,11.50
2019-04-28T13:00:40.416Z,11.60
2019-04-28T13:05:01.785Z,11.90
2019-04-28T13:09:21.843Z,12.30
2019-04-28T13:13:42.296Z,12.80
2019-04-28T13:18:10.299Z,13.50
2019-04-28T13:22:28.813Z,14.10
2019-04-28T13:26:47.659Z,14.70
2019-04-28T13:31:06.772Z,15.40
2019-04-28T13:35:25.236Z,16.00
2019-04-28T13:40:00.488Z,16.50
2019-04-28T13:44:38.605Z,16.90
2019-04-28T13:48:57.582Z,17.10
2019-04-28T13:53:16.393Z,17.20
2019-04-28T13:57:37.694Z,17.30
2019-04-28T14:02:15.055Z,17.20
2019-04-28T14:06:35.640Z,17.00
2019-04-28T14:10:53.954Z,16.70
2019-04-28T14:15:12.881Z,16.50
2019-04-28T14:19:31.600Z,16.30
2019-04-28T14:23:50.844Z,16.20
2019-04-28T14:28:09.242Z,16.10
2019-04-28T14:32:27.527Z,15.90
2019-04-28T14:36:45.901Z,15.80
2019-04-28T14:41:04.523Z,15.70
2019-04-28T14:45:23.349Z,15.60
2019-04-28T14:49:41.949Z,15.50
2019-04-28T14:54:00.091Z,15.40
2019-04-28T14:58:18.802Z,15.20
2019-04-28T15:02:52.294Z,15.10
2019-04-28T15:07:14.218Z,15.00
2019-04-28T15:11:50.145Z,14.90
2019-04-28T15:16:08.745Z,14.80
2019-04-28T15:20:27.159Z,14.80
2019-04-28T15:24:46.451Z,14.70
2019-04-28T15:29:05.331Z,14.60
2019-04-28T15:33:37.752Z,14.60
2019-04-28T15:37:58.647Z,14.60
2019-04-28T15:42:18.364Z,14.60
2019-04-28T15:46:37.075Z,14.60
2019-04-28T15:50:56.258Z,14.70
2019-04-28T15:55:20.551Z,14.70
2019-04-28T15:59:41.292Z,14.80
2019-04-28T16:04:01.505Z,14.80
2019-04-28T16:08:22.635Z,14.90
2019-04-28T16:12:42.746Z,15.00
2019-04-28T16:17:06.419Z,15.10
2019-04-28T16:21:25.831Z,15.20
2019-04-28T16:25:45.690Z,15.30
2019-04-28T16:30:06.729Z,15.40
2019-04-28T16:34:28.461Z,15.50
2019-04-28T16:38:49.498Z,15.60
2019-04-28T16:43:22.604Z,15.60
2019-04-28T16:47:41.425Z,15.50
2019-04-28T16:52:00.324Z,15.40
2019-04-28T16:56:36.387Z,15.30
2019-04-28T17:01:12.370Z,15.30
2019-04-28T17:05:31.169Z,15.30
2019-04-28T17:09:50.095Z,15.30
2019-04-28T17:14:08.956Z,15.30
2019-04-28T17:18:27.954Z,15.30
2019-04-28T17:22:46.574Z,15.20
2019-04-28T17:27:05.581Z,15.20
2019-04-28T17:31:24.154Z,15.20
2019-04-28T17:35:43.616Z,15.20
2019-04-28T17:40:03.762Z,15.10
2019-04-28T17:44:24.875Z,15.10
2019-04-28T17:48:49.151Z,14.90
2019-04-28T17:53:07.740Z,14.80
2019-04-28T17:57:26.382Z,14.70
2019-04-28T18:02:10.628Z,14.70
2019-04-28T18:06:30.934Z,14.60
2019-04-28T18:10:49.906Z,14.60
2019-04-28T18:15:46.323Z,14.50
2019-04-28T18:20:05.439Z,14.40
2019-04-28T18:24:26.177Z,14.30
2019-04-28T18:28:44.550Z,14.00
2019-04-28T18:33:24.985Z,13.80
2019-04-28T18:38:02.492Z,13.60
2019-04-28T18:42:34.099Z,13.40
2019-04-28T18:46:53.177Z,13.30
2019-04-28T18:51:14.389Z,13.10
2019-04-28T18:55:40.623Z,13.00
2019-04-28T19:00:01.714Z,12.90
2019-04-28T19:04:21.704Z,12.70
2019-04-28T19:08:49.741Z,12.60
2019-04-28T19:13:18.769Z,12.50
2019-04-28T19:17:45.596Z,12.40
2019-04-28T19:22:05.893Z,12.30
2019-04-28T19:26:26.262Z,12.30
2019-04-28T19:30:45.672Z,12.20
2019-04-28T19:35:07.896Z,12.10
2019-04-28T19:39:27.911Z,12.00
2019-04-28T19:43:47.379Z,11.90
2019-04-28T19:48:06.528Z,11.80
2019-04-28T19:52:26.880Z,11.80
2019-04-28T19:57:14.237Z,11.70
2019-04-28T20:01:35.633Z,11.70
2019-04-28T20:05:55.383Z,11.60
2019-04-28T20:10:15.122Z,11.60
2019-04-28T20:14:35.760Z,11.60
2019-04-28T20:18:55.328Z,11.60
2019-04-28T20:23:14.285Z,11.60
2019-04-28T20:27:33.133Z,11.60
2019-04-28T20:31:52.379Z,11.60
2019-04-28T20:36:18.110Z,11.60
2019-04-28T20:40:42.822Z,11.60
2019-04-28T20:45:01.825Z,11.50
2019-04-28T20:49:21.145Z,11.50
2019-04-28T20:53:42.336Z,11.50
2019-04-28T20:58:01.505Z,11.40
2019-04-28T21:02:21.155Z,11.40
2019-04-28T21:06:40.486Z,11.40
2019-04-28T21:10:59.015Z,11.30
2019-04-28T21:15:18.584Z,11.30
2019-04-28T21:19:37.082Z,11.40
2019-04-28T21:23:55.727Z,11.40
2019-04-28T21:28:14.780Z,11.40
2019-04-28T21:32:33.359Z,11.40
2019-04-28T21:36:52.766Z,11.40
2019-04-28T21:41:12.955Z,11.40
2019-04-28T21:45:50.472Z,11.40
2019-04-28T21:50:10.495Z,11.30
2019-04-28T21:54:28.912Z,11.30
2019-04-28T21:58:47.883Z,11.30
2019-04-28T22:03:06.787Z,11.20
2019-04-28T22:07:25.576Z,11.10
2019-04-28T22:11:44.387Z,11.10
2019-04-28T22:16:02.874Z,11.00
2019-04-28T22:20:22.613Z,10.90
2019-04-28T22:24:59.461Z,10.90
2019-04-28T22:29:17.940Z,10.80
2019-04-28T22:33:36.302Z,10.70
2019-04-28T22:37:54.734Z,10.70
2019-04-28T22:42:13.219Z,10.70
2019-04-28T22:46:32.026Z,10.60
2019-04-28T22:50:51.945Z,10.50
2019-04-28T22:55:18.907Z,10.50
2019-04-28T22:59:41.088Z,10.40
2019-04-28T23:04:20.015Z,10.40
2019-04-28T23:08:38.564Z,10.30
2019-04-28T23:12:56.987Z,10.20
2019-04-28T23:17:16.823Z,10.20
2019-04-28T23:21:48.919Z,10.10
2019-04-28T23:26:07.292Z,10.00
2019-04-28T23:30:56.794Z,9.90
2019-04-28T23:35:15.338Z,9.90
2019-04-28T23:39:33.584Z,9.80
2019-04-28T23:43:52.232Z,9.80
2019-04-28T23:48:11.088Z,9.70
2019-04-28T23:52:48.621Z,9.70
2019-04-28T23:57:07.457Z,9.60
